Terminal Aerodrome Forecast
Issued by NWS

Home | Current Version | Previous Version | Text Only | Print | Product List | Glossary On
Versions: 1 2 3 4 5 6 7 8 9 10 11 12 13 14 15 16 17 18 19 20
121
FTUS46 KSTO 211158
TAFRBL
TAF
KRBL 211158Z 2112/2212 16018G27KT P6SM VCSH OVC015
     FM212000 17012KT P6SM -SHRA BKN050=

USA.gov is the U.S. government's official web portal to all federal, state and local government web resources and services.